Theodore Francis Green State Airport
KPVD : rendu visible

Aérodrome :











RETROUVEZ-NOUS SUR...

 
LOGIN :

S'inscrire | Disclaimer

   EN    FR    IT 

 









Légende :    VFR   VFR Marginal   IFR   IFR Intensif   IFR Très Intensif
Visi : 
Plafond : 
>= 8 km
>= 3000ft
5 à 8 km
1000 à 3000 ft
1500m à 5 km
500 à 1000 ft
800 à 1500m
200 à 500 ft
< 800m
< 200 ft
Symboles :   Orages  Brouillard  Fortes neiges  Fortes précipitations  Vent > 20 kt






- Altitude de l'aérodrome : 55 ft
- Code IATA : PVD


KPVD - Theodore Francis Green State

DERNIER METAR :
  • 260151Z 15017G31KT 3SM -RA BR BKN006 OVC016 11/11 A2972 RMK AO2 PK WND 13032/0125 SFC VIS 6 SLP063 CIG 005V012 P0019 T01110106

METARs EXPIRÉS :
  • 260051Z 13012G17KT 3SM +RA BR OVC005 09/08 A2976 RMK AO2 SLP079 CIG 004V008 P0010 T00890083
  • 260002Z 10014G25KT 2 1/2SM RA BR OVC006 08/08 A2979 RMK AO2 TWR VIS 3 CIG 004V010 P0002 T00780078
  • 252351Z 11017G26KT 3SM -RA BR OVC006 08/07 A2980 RMK AO2 PK WND 09026/2346 SFC VIS 3 SLP093 CIG 004V010 P0003 60008 T00780072 10083 20072 58050
  • 252321Z 10014KT 3SM -RA BR OVC005 08/07 A2983 RMK AO2 P0002 T00780072

TAF KPVD
Valide du 26 à 00h jusqu'au 27 à 00h UTC


252339Z 2600/2624 11014G23KT 1 1/2SM RA OVC008
FM260200 15012G20KT 1SM +RA OVC005
FM260400 17009KT 1/2SM -RA OVC003
FM260700 21008KT P6SM OVC003
FM261000 26007KT P6SM BKN011
FM261400 26008KT P6SM SCT120



MET'MAP, la Météo Aéronautique d'un coup d'oeil ! - Copyright ORBIFLY Décembre 2007 - Disclaimer

ORBIFLY MET'MAP TEAM :

Programmation & Développement : Alexandra Zaïnal
Sur une idée originale de : Baudouin d'Aumeries
Assistance à la programmation : Marc-Olivier Méhu
Soutien technique & logistique : Manuel Goepfert

Contact : metmap@orbifly.com




SOURCES & CREDITS :

   NOAA       Earth
Advisory